createdAt,value
2022-11-18T00:01:08.533Z,21.27
2022-11-18T00:03:11.322Z,21.00
2022-11-18T00:05:14.361Z,25.37
2022-11-18T00:07:17.241Z,23.07
2022-11-18T00:09:20.180Z,23.20
2022-11-18T00:11:42.527Z,21.50
2022-11-18T00:14:02.928Z,25.63
2022-11-18T00:16:09.414Z,25.90
2022-11-18T00:18:12.234Z,20.63
2022-11-18T00:20:15.350Z,22.93
2022-11-18T00:22:18.153Z,23.23
2022-11-18T00:24:21.651Z,24.97
2022-11-18T00:26:24.469Z,20.67
2022-11-18T00:28:27.299Z,23.27
2022-11-18T00:30:30.134Z,26.60
2022-11-18T00:32:34.291Z,19.60
2022-11-18T00:34:37.116Z,21.40
2022-11-18T00:36:39.992Z,21.50
2022-11-18T00:38:42.844Z,24.80
2022-11-18T00:40:45.665Z,23.47
2022-11-18T00:42:53.762Z,20.87
2022-11-18T00:44:56.579Z,23.87
2022-11-18T00:46:59.536Z,22.17
2022-11-18T00:49:03.691Z,21.97
2022-11-18T00:51:11.204Z,20.77
2022-11-18T00:53:14.024Z,21.80
2022-11-18T00:55:16.874Z,27.50
2022-11-18T00:57:19.701Z,28.27
2022-11-18T00:59:22.616Z,26.70
2022-11-18T01:01:25.804Z,24.90
2022-11-18T01:03:29.706Z,19.60
2022-11-18T01:05:33.846Z,21.33
2022-11-18T01:07:36.714Z,26.40
2022-11-18T01:09:39.740Z,27.83
2022-11-18T01:12:14.537Z,21.20
2022-11-18T01:14:17.468Z,23.20
2022-11-18T01:16:22.047Z,27.40
2022-11-18T01:18:27.271Z,24.87
2022-11-18T01:20:30.194Z,22.73
2022-11-18T01:22:34.335Z,21.70
2022-11-18T01:24:37.250Z,21.93
2022-11-18T01:26:40.102Z,21.10
2022-11-18T01:28:42.976Z,24.73
2022-11-18T01:30:46.362Z,21.43
2022-11-18T01:32:49.212Z,23.10
2022-11-18T01:34:52.069Z,22.50
2022-11-18T01:36:56.414Z,22.53
2022-11-18T01:39:01.424Z,19.47
2022-11-18T01:41:04.253Z,19.73
2022-11-18T01:43:13.385Z,21.30
2022-11-18T01:45:25.855Z,20.60
2022-11-18T01:47:32.733Z,20.10
2022-11-18T01:49:35.639Z,21.17
2022-11-18T01:51:44.647Z,22.80
2022-11-18T01:53:52.504Z,21.00
2022-11-18T01:56:00.223Z,18.80
2022-11-18T01:58:07.703Z,17.17
2022-11-18T02:00:12.180Z,17.03
2022-11-18T02:02:16.383Z,17.73
2022-11-18T02:04:19.641Z,17.43
2022-11-18T02:06:22.560Z,15.47
2022-11-18T02:08:25.767Z,16.40
2022-11-18T02:10:28.630Z,16.53
2022-11-18T02:12:32.504Z,16.90
2022-11-18T02:14:38.323Z,15.63
2022-11-18T02:16:54.234Z,19.23
2022-11-18T02:19:01.652Z,16.87
2022-11-18T02:21:21.187Z,18.37
2022-11-18T02:24:03.619Z,16.23
2022-11-18T02:26:46.954Z,16.80
2022-11-18T02:29:06.986Z,17.07
2022-11-18T02:31:15.773Z,14.40
2022-11-18T02:33:23.906Z,15.97
2022-11-18T02:35:31.280Z,16.93
2022-11-18T02:37:39.066Z,14.97
2022-11-18T02:39:48.744Z,14.30
2022-11-18T02:41:55.231Z,13.40
2022-11-18T02:44:04.550Z,13.43
2022-11-18T02:46:11.467Z,12.80
2022-11-18T02:48:15.387Z,14.70
2022-11-18T02:50:22.270Z,13.53
2022-11-18T02:52:26.898Z,14.07
2022-11-18T02:54:30.702Z,12.67
2022-11-18T02:56:35.002Z,11.90
2022-11-18T02:58:37.818Z,10.00
2022-11-18T03:00:42.155Z,11.07
2022-11-18T03:02:46.594Z,10.30
2022-11-18T03:04:51.123Z,10.53
2022-11-18T03:07:03.540Z,11.03
2022-11-18T03:09:13.614Z,11.87
2022-11-18T03:11:21.282Z,9.47
2022-11-18T03:13:28.669Z,11.10
2022-11-18T03:15:39.597Z,10.87
2022-11-18T03:17:52.326Z,9.67
2022-11-18T03:20:06.726Z,8.93
2022-11-18T03:22:16.591Z,9.00
2022-11-18T03:24:24.807Z,9.70
2022-11-18T03:26:32.808Z,8.50
2022-11-18T03:28:39.859Z,10.60
2022-11-18T03:30:47.601Z,9.80
2022-11-18T03:32:57.508Z,10.10
2022-11-18T03:35:05.347Z,11.07
2022-11-18T03:37:11.231Z,11.33
2022-11-18T03:39:16.706Z,11.77
2022-11-18T03:41:22.538Z,10.77
2022-11-18T03:43:30.693Z,13.60
2022-11-18T03:45:37.771Z,11.80
2022-11-18T03:47:43.243Z,11.70
2022-11-18T03:49:53.681Z,10.40
2022-11-18T03:52:02.595Z,11.03
2022-11-18T03:54:10.417Z,11.93
2022-11-18T03:56:17.765Z,11.57
2022-11-18T03:58:25.166Z,14.07
2022-11-18T04:00:32.466Z,12.53
2022-11-18T04:02:36.215Z,13.17
2022-11-18T04:04:39.362Z,11.87
2022-11-18T04:06:47.671Z,13.70
2022-11-18T04:08:55.738Z,11.93
2022-11-18T04:11:04.847Z,11.13
2022-11-18T04:13:10.394Z,11.27
2022-11-18T04:15:13.863Z,11.13
2022-11-18T04:17:18.592Z,11.67
2022-11-18T04:19:21.906Z,13.63
2022-11-18T04:21:25.095Z,10.37
2022-11-18T04:23:29.266Z,12.63
2022-11-18T04:25:32.267Z,11.57
2022-11-18T04:27:35.083Z,10.47
2022-11-18T04:29:38.320Z,11.73
2022-11-18T04:31:41.143Z,12.60
2022-11-18T04:33:43.974Z,13.10
2022-11-18T04:35:47.881Z,12.03
2022-11-18T04:37:50.711Z,11.10
2022-11-18T04:39:54.907Z,10.33
2022-11-18T04:41:57.814Z,9.60
2022-11-18T04:44:12.892Z,10.63
2022-11-18T04:46:15.746Z,12.30
2022-11-18T04:48:19.183Z,10.97
2022-11-18T04:50:21.990Z,9.77
2022-11-18T04:52:24.838Z,10.00
2022-11-18T04:54:28.766Z,10.23
2022-11-18T04:56:33.036Z,10.27
2022-11-18T04:58:35.854Z,10.37
2022-11-18T05:00:38.702Z,9.67
2022-11-18T05:02:41.514Z,10.07
2022-11-18T05:04:44.331Z,11.43
2022-11-18T05:06:47.599Z,10.30
2022-11-18T05:08:50.803Z,13.60
2022-11-18T05:11:13.616Z,8.63
2022-11-18T05:13:16.863Z,9.63
2022-11-18T05:15:21.847Z,8.53
2022-11-18T05:17:24.680Z,8.70
2022-11-18T05:19:27.669Z,9.83
2022-11-18T05:21:30.444Z,10.27
2022-11-18T05:23:33.260Z,9.63
2022-11-18T05:25:37.017Z,9.43
2022-11-18T05:27:39.840Z,10.43
2022-11-18T05:29:44.353Z,9.87
2022-11-18T05:31:47.377Z,10.93
2022-11-18T05:33:50.237Z,9.57
2022-11-18T05:35:55.220Z,12.33
2022-11-18T05:37:58.389Z,11.40
2022-11-18T05:40:01.195Z,10.30
2022-11-18T05:42:21.739Z,12.93
2022-11-18T05:44:24.550Z,13.17
2022-11-18T05:46:29.653Z,14.03
2022-11-18T05:48:32.496Z,13.93
2022-11-18T05:50:38.081Z,15.97
2022-11-18T05:52:41.092Z,14.40
2022-11-18T05:54:48.515Z,12.27
2022-11-18T05:56:51.526Z,14.87
2022-11-18T05:58:54.634Z,14.53
2022-11-18T06:01:02.174Z,14.73
2022-11-18T06:03:14.711Z,15.13
2022-11-18T06:05:19.494Z,14.47
2022-11-18T06:07:26.372Z,14.77
2022-11-18T06:09:33.286Z,15.87
2022-11-18T06:11:41.221Z,14.03
2022-11-18T06:13:50.533Z,12.90
2022-11-18T06:15:53.555Z,15.43
2022-11-18T06:18:00.815Z,17.10
2022-11-18T06:20:06.235Z,14.70
2022-11-18T06:22:09.806Z,14.73
2022-11-18T06:24:14.322Z,16.27
2022-11-18T06:26:18.375Z,15.80
2022-11-18T06:28:22.535Z,14.13
2022-11-18T06:30:25.382Z,15.10
2022-11-18T06:32:28.187Z,14.07
2022-11-18T06:34:31.008Z,13.33
2022-11-18T06:36:35.188Z,15.17
2022-11-18T06:38:38.050Z,16.40
2022-11-18T06:40:44.629Z,13.97
2022-11-18T06:43:05.049Z,13.30
2022-11-18T06:45:08.687Z,14.23
2022-11-18T06:47:10.566Z,15.53
2022-11-18T06:49:13.383Z,13.97
2022-11-18T06:51:16.377Z,12.63
2022-11-18T06:53:20.534Z,13.63
2022-11-18T06:55:23.377Z,13.47
2022-11-18T06:57:26.228Z,13.10
2022-11-18T06:59:29.084Z,13.03
2022-11-18T07:01:33.231Z,14.20
2022-11-18T07:03:36.080Z,13.10
2022-11-18T07:05:38.894Z,14.27
2022-11-18T07:07:42.583Z,18.30
2022-11-18T07:09:46.871Z,15.30
2022-11-18T07:11:49.679Z,17.30
2022-11-18T07:13:52.823Z,19.33
2022-11-18T07:15:55.623Z,17.60
2022-11-18T07:17:58.486Z,18.30
2022-11-18T07:20:01.421Z,19.63
2022-11-18T07:22:04.252Z,16.90
2022-11-18T07:24:08.304Z,19.10
2022-11-18T07:26:12.692Z,16.60
2022-11-18T07:28:15.535Z,18.87
2022-11-18T07:30:18.985Z,17.10
2022-11-18T07:32:21.845Z,17.87
2022-11-18T07:34:24.663Z,17.53
2022-11-18T07:36:35.134Z,15.43
2022-11-18T07:38:38.710Z,17.53
2022-11-18T07:40:41.529Z,16.83
2022-11-18T07:42:45.654Z,15.13
2022-11-18T07:44:48.479Z,14.90
2022-11-18T07:46:51.297Z,16.23
2022-11-18T07:48:55.567Z,16.03
2022-11-18T07:51:02.078Z,14.20
2022-11-18T07:53:04.915Z,17.03
2022-11-18T07:55:08.380Z,14.07
2022-11-18T07:57:11.255Z,15.53
2022-11-18T07:59:15.575Z,15.63
2022-11-18T08:01:20.420Z,17.10
2022-11-18T08:03:27.707Z,16.60
2022-11-18T08:05:31.155Z,14.97
2022-11-18T08:07:34.049Z,16.40
2022-11-18T08:09:36.994Z,16.93
2022-11-18T08:11:40.852Z,17.30
2022-11-18T08:13:43.827Z,18.43
2022-11-18T08:15:47.970Z,15.73
2022-11-18T08:17:50.806Z,17.63
2022-11-18T08:19:53.627Z,14.83
2022-11-18T08:21:56.459Z,14.20
2022-11-18T08:23:59.728Z,14.00
2022-11-18T08:26:04.667Z,16.10
2022-11-18T08:28:07.951Z,18.00
2022-11-18T08:30:12.242Z,14.73
2022-11-18T08:32:16.392Z,14.77
2022-11-18T08:34:19.222Z,13.97
2022-11-18T08:36:24.165Z,16.80
2022-11-18T08:38:26.982Z,13.47
2022-11-18T08:40:29.884Z,17.33
2022-11-18T08:42:34.580Z,15.07
2022-11-18T08:44:37.670Z,13.33
2022-11-18T08:46:40.715Z,13.53
2022-11-18T08:48:44.877Z,17.67
2022-11-18T08:50:47.675Z,13.20
2022-11-18T08:52:50.481Z,12.93
2022-11-18T08:54:53.300Z,11.00
2022-11-18T08:56:56.121Z,12.47
2022-11-18T08:58:58.958Z,14.13
2022-11-18T09:01:06.590Z,11.90
2022-11-18T09:03:09.601Z,13.73
2022-11-18T09:05:13.817Z,13.10
2022-11-18T09:07:16.703Z,11.80
2022-11-18T09:09:19.932Z,11.20
2022-11-18T09:11:25.172Z,10.77
2022-11-18T09:15:50.837Z,12.20
2022-11-18T09:17:53.680Z,11.20
2022-11-18T09:19:56.540Z,12.67
2022-11-18T09:22:00.774Z,10.80
2022-11-18T09:24:06.231Z,13.20
2022-11-18T09:26:11.326Z,11.47
2022-11-18T09:28:14.198Z,11.87
2022-11-18T09:30:17.733Z,12.90
2022-11-18T09:32:20.543Z,11.00
2022-11-18T09:34:23.747Z,11.00
2022-11-18T09:36:26.813Z,12.73
2022-11-18T09:38:32.147Z,13.03
2022-11-18T09:40:40.967Z,10.87
2022-11-18T09:42:56.401Z,12.73
2022-11-18T09:45:13.487Z,10.47
2022-11-18T09:47:28.037Z,11.27
2022-11-18T09:49:36.186Z,11.90
2022-11-18T09:51:41.371Z,9.30
2022-11-18T09:53:46.808Z,10.80
2022-11-18T09:55:50.648Z,10.10
2022-11-18T09:57:55.776Z,11.73
2022-11-18T10:00:00.025Z,9.53
2022-11-18T10:02:21.082Z,11.30
2022-11-18T10:04:23.924Z,11.83
2022-11-18T10:06:29.700Z,10.67
2022-11-18T10:08:37.274Z,11.57
2022-11-18T10:10:50.037Z,12.70
2022-11-18T10:13:00.195Z,9.70
2022-11-18T10:15:16.311Z,11.67
2022-11-18T10:17:34.936Z,12.07
2022-11-18T10:19:43.418Z,9.97
2022-11-18T10:21:56.143Z,10.20
2022-11-18T10:24:03.891Z,10.47
2022-11-18T10:26:08.053Z,8.83
2022-11-18T10:28:18.154Z,8.53
2022-11-18T10:30:22.773Z,7.80
2022-11-18T10:32:25.764Z,25.53
2022-11-18T10:34:28.806Z,11.17
2022-11-18T10:36:34.130Z,8.57
2022-11-18T10:38:36.949Z,11.50
2022-11-18T10:40:44.972Z,9.90
2022-11-18T10:42:49.116Z,10.37
2022-11-18T10:44:51.970Z,10.10
2022-11-18T10:46:54.773Z,10.90
2022-11-18T10:49:17.569Z,10.17
2022-11-18T10:51:25.442Z,9.77
2022-11-18T10:53:32.279Z,7.93
2022-11-18T10:55:35.413Z,9.00
2022-11-18T10:57:43.367Z,9.43
2022-11-18T10:59:51.949Z,10.37
2022-11-18T11:02:14.765Z,9.83
2022-11-18T11:04:23.924Z,9.03
2022-11-18T11:06:32.881Z,10.20
2022-11-18T11:08:37.682Z,9.23
2022-11-18T11:10:40.741Z,10.63
2022-11-18T11:12:47.937Z,9.77
2022-11-18T11:14:55.321Z,7.17
2022-11-18T11:17:03.255Z,9.07
2022-11-18T11:19:07.758Z,9.93
2022-11-18T11:21:13.258Z,7.43
2022-11-18T11:23:23.223Z,7.57
2022-11-18T11:28:18.447Z,8.40
2022-11-18T11:30:23.643Z,8.57
2022-11-18T11:32:34.074Z,9.77
2022-11-18T11:34:45.250Z,11.23
2022-11-18T11:36:55.855Z,9.50
2022-11-18T11:39:23.194Z,13.00
2022-11-18T11:41:31.129Z,8.40
2022-11-18T11:43:42.451Z,9.20
2022-11-18T11:46:02.448Z,10.97
2022-11-18T11:48:27.152Z,13.67
2022-11-18T11:51:01.641Z,15.30
2022-11-18T11:53:17.439Z,14.40
2022-11-18T11:55:27.058Z,14.97
2022-11-18T11:57:39.566Z,14.07
2022-11-18T11:59:48.560Z,13.23
2022-11-18T12:02:00.578Z,14.87
2022-11-18T12:04:15.815Z,14.07
2022-11-18T12:06:18.666Z,14.33
2022-11-18T12:08:24.534Z,15.57
2022-11-18T12:10:34.158Z,14.33
2022-11-18T12:12:46.944Z,12.93
2022-11-18T12:14:57.418Z,14.37
2022-11-18T12:17:07.994Z,15.57
2022-11-18T12:19:15.105Z,11.77
2022-11-18T12:21:55.529Z,13.87
2022-11-18T12:24:36.313Z,13.53
2022-11-18T12:26:39.568Z,13.90
2022-11-18T12:28:45.197Z,11.93
2022-11-18T12:30:48.217Z,14.03
2022-11-18T12:32:57.716Z,12.83
2022-11-18T12:35:03.356Z,14.03
2022-11-18T12:37:43.813Z,11.37
2022-11-18T12:39:58.341Z,14.67
2022-11-18T12:42:20.157Z,12.37
2022-11-18T12:44:24.913Z,12.57
2022-11-18T12:46:50.891Z,13.53
2022-11-18T12:48:55.184Z,10.40
2022-11-18T12:50:59.408Z,12.23
2022-11-18T12:53:02.353Z,12.03
2022-11-18T12:55:14.431Z,13.07
2022-11-18T12:57:21.629Z,10.03
2022-11-18T12:59:28.890Z,11.97
2022-11-18T13:01:35.206Z,12.03
2022-11-18T13:03:38.049Z,10.27
2022-11-18T13:05:43.396Z,12.60
2022-11-18T13:08:07.162Z,11.40
2022-11-18T13:10:23.273Z,13.67
2022-11-18T13:12:29.935Z,12.20
2022-11-18T13:14:52.849Z,14.00
2022-11-18T13:17:13.356Z,14.47
2022-11-18T13:19:23.488Z,14.70
2022-11-18T13:21:47.608Z,12.13
2022-11-18T13:23:59.288Z,15.53
2022-11-18T13:26:06.337Z,14.70
2022-11-18T13:28:19.982Z,13.47
2022-11-18T13:30:22.875Z,12.67
2022-11-18T13:32:27.804Z,12.57
2022-11-18T13:34:32.740Z,13.03
2022-11-18T13:36:44.578Z,12.17
2022-11-18T13:38:57.377Z,13.97
2022-11-18T13:41:12.990Z,13.57
2022-11-18T13:43:27.105Z,15.30
2022-11-18T13:45:31.689Z,14.87
2022-11-18T13:47:41.160Z,12.77
2022-11-18T13:49:53.576Z,12.37
2022-11-18T13:51:57.979Z,11.80
2022-11-18T13:54:01.009Z,9.53
2022-11-18T13:56:06.269Z,10.20
2022-11-18T13:58:40.048Z,10.40
2022-11-18T14:00:57.384Z,8.20
2022-11-18T14:03:03.069Z,10.03
2022-11-18T14:05:06.512Z,7.20
2022-11-18T14:07:28.014Z,6.57
2022-11-18T14:09:32.393Z,5.77
2022-11-18T14:11:37.384Z,5.07
2022-11-18T14:13:49.988Z,5.77
2022-11-18T14:15:53.992Z,6.00
2022-11-18T14:17:59.079Z,6.13
2022-11-18T14:20:09.850Z,6.13
2022-11-18T14:22:16.104Z,6.20
2022-11-18T14:24:28.114Z,6.17
2022-11-18T14:26:32.939Z,6.47
2022-11-18T14:28:37.573Z,6.17
2022-11-18T14:30:41.660Z,6.03
2022-11-18T14:33:03.593Z,6.57
2022-11-18T14:35:06.798Z,6.60
2022-11-18T14:37:12.646Z,7.67
2022-11-18T14:39:31.578Z,6.70
2022-11-18T14:41:50.231Z,6.77
2022-11-18T14:43:53.073Z,8.63
2022-11-18T14:45:59.047Z,7.30
2022-11-18T14:48:01.925Z,8.13
2022-11-18T14:50:07.161Z,7.37
2022-11-18T14:52:11.533Z,8.80
2022-11-18T14:54:20.758Z,7.50
2022-11-18T14:56:31.157Z,8.23
2022-11-18T14:58:34.021Z,9.43
2022-11-18T15:00:37.185Z,8.73
2022-11-18T15:02:40.155Z,10.23
2022-11-18T15:04:43.211Z,8.37
2022-11-18T15:06:46.062Z,9.23
2022-11-18T15:08:51.087Z,8.33
2022-11-18T15:10:53.977Z,8.50
2022-11-18T15:12:58.227Z,8.23
2022-11-18T15:15:01.076Z,7.50
2022-11-18T15:17:04.495Z,8.17
2022-11-18T15:19:11.629Z,6.97
2022-11-18T15:21:14.585Z,6.57
2022-11-18T15:23:17.402Z,8.27
2022-11-18T15:25:20.247Z,6.90
2022-11-18T15:27:23.081Z,7.23
2022-11-18T15:29:27.313Z,8.37
2022-11-18T15:31:30.239Z,8.37
2022-11-18T15:33:33.118Z,8.60
2022-11-18T15:35:35.956Z,6.30
2022-11-18T15:37:38.777Z,7.53
2022-11-18T15:39:41.708Z,6.70
2022-11-18T15:41:44.608Z,6.80
2022-11-18T15:43:50.192Z,8.17
2022-11-18T15:45:59.210Z,7.53
2022-11-18T15:48:02.024Z,7.40
2022-11-18T15:50:05.485Z,6.90
2022-11-18T15:52:08.737Z,8.57
2022-11-18T15:54:11.747Z,8.13
2022-11-18T15:56:26.512Z,8.00
2022-11-18T15:58:33.008Z,7.47
2022-11-18T16:00:38.692Z,8.77
2022-11-18T16:02:45.163Z,8.87
2022-11-18T16:04:48.282Z,9.33
2022-11-18T16:06:51.134Z,9.60
2022-11-18T16:08:59.177Z,9.80
2022-11-18T16:11:20.457Z,9.20
2022-11-18T16:13:23.303Z,8.53
2022-11-18T16:15:44.386Z,10.23
2022-11-18T16:17:48.563Z,8.57
2022-11-18T16:19:51.375Z,8.80
2022-11-18T16:21:56.975Z,9.60
2022-11-18T16:24:02.111Z,10.27
2022-11-18T16:26:05.226Z,11.97
2022-11-18T16:28:08.132Z,13.77
2022-11-18T16:30:32.493Z,13.90
2022-11-18T16:32:35.344Z,17.00
2022-11-18T16:34:39.733Z,17.00
2022-11-18T16:36:44.340Z,17.97
2022-11-18T16:38:47.167Z,17.27
2022-11-18T16:40:56.165Z,18.13
2022-11-18T16:42:58.980Z,18.80
2022-11-18T16:45:01.811Z,21.33
2022-11-18T16:47:12.266Z,19.83
2022-11-18T16:49:18.788Z,19.37
2022-11-18T16:51:25.303Z,20.13
2022-11-18T16:53:28.127Z,22.53
2022-11-18T16:55:31.285Z,23.10
2022-11-18T16:57:34.264Z,23.50
2022-11-18T16:59:37.108Z,23.47
2022-11-18T17:01:39.980Z,21.63
2022-11-18T17:03:43.161Z,24.00
2022-11-18T17:05:45.962Z,23.63
2022-11-18T17:07:50.228Z,25.13
2022-11-18T17:09:53.278Z,25.30
2022-11-18T17:11:57.064Z,21.70
2022-11-18T17:14:00.154Z,24.93
2022-11-18T17:16:07.314Z,25.67
2022-11-18T17:18:10.138Z,26.10
2022-11-18T17:20:12.967Z,28.07
2022-11-18T17:22:15.789Z,25.33
2022-11-18T17:24:22.212Z,26.47
2022-11-18T17:26:27.476Z,23.87
2022-11-18T17:28:31.360Z,27.17
2022-11-18T17:30:34.467Z,25.00
2022-11-18T17:32:37.931Z,24.67
2022-11-18T17:34:40.767Z,28.50
2022-11-18T17:36:43.938Z,28.10
2022-11-18T17:38:48.364Z,27.07
2022-11-18T17:40:55.853Z,27.83
2022-11-18T17:42:57.720Z,28.00
2022-11-18T17:45:00.543Z,27.30
2022-11-18T17:47:03.759Z,26.37
2022-11-18T17:49:08.589Z,25.23
2022-11-18T17:51:11.458Z,27.27
2022-11-18T17:53:14.410Z,27.43
2022-11-18T17:55:17.496Z,24.77
2022-11-18T17:57:21.646Z,23.13
2022-11-18T17:59:24.487Z,23.63
2022-11-18T18:01:27.561Z,25.50
2022-11-18T18:03:30.466Z,26.27
2022-11-18T18:05:33.584Z,27.20
2022-11-18T18:07:36.496Z,28.57
2022-11-18T18:09:39.470Z,31.10
2022-11-18T18:11:42.279Z,27.63
2022-11-18T18:14:04.431Z,32.47
2022-11-18T18:16:07.616Z,29.03
2022-11-18T18:18:10.448Z,28.67
2022-11-18T18:20:13.317Z,28.80
2022-11-18T18:22:16.138Z,40.47
2022-11-18T18:24:20.828Z,33.50
2022-11-18T18:26:30.883Z,37.03
2022-11-18T18:28:35.463Z,31.03
2022-11-18T18:30:39.662Z,32.40
2022-11-18T18:32:42.488Z,36.47
2022-11-18T18:34:45.331Z,35.57
2022-11-18T18:36:48.183Z,33.67
2022-11-18T18:38:51.086Z,31.43
2022-11-18T18:40:54.002Z,31.87
2022-11-18T18:42:56.827Z,34.13
2022-11-18T18:45:17.091Z,33.77
2022-11-18T18:47:21.317Z,32.47
2022-11-18T18:49:24.411Z,36.20
2022-11-18T18:51:27.892Z,35.40
2022-11-18T18:53:31.754Z,33.57
2022-11-18T18:55:34.617Z,35.33
2022-11-18T18:57:37.470Z,33.90
2022-11-18T18:59:40.347Z,35.97
2022-11-18T19:01:43.420Z,35.57
2022-11-18T19:03:48.131Z,38.53
2022-11-18T19:06:27.272Z,36.90
2022-11-18T19:08:13.794Z,36.87
2022-11-18T19:10:17.086Z,37.73
2022-11-18T19:12:37.301Z,35.53
2022-11-18T19:14:40.293Z,32.67
2022-11-18T19:16:43.809Z,36.97
2022-11-18T19:18:47.977Z,35.30
2022-11-18T19:20:50.934Z,33.50
2022-11-18T19:22:53.887Z,37.83
2022-11-18T19:24:56.862Z,36.13
2022-11-18T19:26:59.855Z,40.27
2022-11-18T19:29:03.063Z,43.20
2022-11-18T19:31:06.008Z,41.97
2022-11-18T19:33:08.872Z,42.77
2022-11-18T19:35:13.128Z,38.20
2022-11-18T19:37:16.032Z,36.07
2022-11-18T19:39:19.140Z,38.23
2022-11-18T19:41:22.218Z,41.87
2022-11-18T19:43:27.109Z,40.10
2022-11-18T19:45:29.963Z,39.93
2022-11-18T19:47:33.279Z,43.30
2022-11-18T19:49:36.114Z,38.77
2022-11-18T19:51:40.286Z,47.03
2022-11-18T19:53:44.194Z,40.70
2022-11-18T19:55:54.531Z,43.13
2022-11-18T19:57:57.354Z,38.87
2022-11-18T20:00:00.188Z,43.67
2022-11-18T20:02:03.010Z,43.53
2022-11-18T20:04:06.356Z,43.30
2022-11-18T20:06:11.449Z,43.03
2022-11-18T20:08:15.762Z,40.90
2022-11-18T20:10:18.904Z,41.97
2022-11-18T20:12:21.714Z,45.70
2022-11-18T20:14:25.402Z,42.70
2022-11-18T20:16:28.457Z,41.60
2022-11-18T20:18:32.007Z,42.70
2022-11-18T20:20:35.809Z,46.40
2022-11-18T20:22:38.722Z,41.50
2022-11-18T20:24:42.924Z,44.73
2022-11-18T20:26:46.228Z,43.67
2022-11-18T20:28:54.459Z,47.57
2022-11-18T20:31:00.387Z,43.03
2022-11-18T20:33:03.246Z,45.87
2022-11-18T20:35:07.052Z,42.83
2022-11-18T20:37:09.890Z,42.67
2022-11-18T20:39:15.430Z,45.47
2022-11-18T20:41:20.460Z,46.40
2022-11-18T20:43:22.387Z,40.50
2022-11-18T20:45:25.250Z,43.33
2022-11-18T20:47:28.115Z,41.37
2022-11-18T20:49:30.965Z,43.83
2022-11-18T20:51:33.784Z,40.53
2022-11-18T20:53:37.908Z,44.17
2022-11-18T20:55:41.040Z,46.77
2022-11-18T20:57:45.263Z,44.23
2022-11-18T20:59:48.085Z,41.33
2022-11-18T21:01:50.904Z,43.80
2022-11-18T21:03:55.424Z,43.00
2022-11-18T21:05:58.910Z,43.03
2022-11-18T21:08:01.889Z,42.30
2022-11-18T21:10:04.992Z,41.10
2022-11-18T21:12:07.884Z,41.97
2022-11-18T21:14:23.294Z,45.43
2022-11-18T21:16:28.632Z,46.93
2022-11-18T21:18:31.421Z,42.50
2022-11-18T21:20:51.679Z,45.27
2022-11-18T21:22:54.516Z,42.83
2022-11-18T21:24:57.337Z,44.77
2022-11-18T21:27:01.464Z,45.73
2022-11-18T21:29:06.393Z,48.50
2022-11-18T21:31:10.791Z,43.80
2022-11-18T21:33:14.352Z,40.37
2022-11-18T21:35:17.456Z,39.63
2022-11-18T21:37:20.530Z,46.27
2022-11-18T21:39:24.455Z,46.03
2022-11-18T21:41:28.082Z,47.67
2022-11-18T21:44:03.475Z,46.30
2022-11-18T21:45:55.576Z,43.13
2022-11-18T21:48:00.163Z,40.07
2022-11-18T21:50:03.076Z,43.57
2022-11-18T21:52:06.086Z,45.27
2022-11-18T21:54:09.283Z,47.53
2022-11-18T21:56:16.871Z,47.27
2022-11-18T21:58:20.592Z,43.50
2022-11-18T22:00:23.751Z,46.27
2022-11-18T22:02:26.721Z,46.87
2022-11-18T22:04:48.657Z,44.00
2022-11-18T22:06:51.573Z,43.93
2022-11-18T22:08:54.721Z,46.70
2022-11-18T22:10:57.891Z,40.13
2022-11-18T22:13:00.714Z,48.37
2022-11-18T22:15:03.568Z,39.37
2022-11-18T22:17:07.597Z,44.17
2022-11-18T22:19:10.574Z,41.93
2022-11-18T22:21:16.526Z,42.90
2022-11-18T22:23:21.517Z,45.87
2022-11-18T22:25:24.599Z,41.00
2022-11-18T22:27:27.769Z,46.23
2022-11-18T22:29:30.606Z,45.90
2022-11-18T22:31:33.442Z,43.50
2022-11-18T22:33:36.323Z,44.67
2022-11-18T22:35:39.185Z,47.77
2022-11-18T22:37:43.494Z,43.73
2022-11-18T22:39:47.418Z,42.37
2022-11-18T22:42:07.896Z,44.50
2022-11-18T22:44:12.746Z,43.27
2022-11-18T22:46:15.553Z,40.93
2022-11-18T22:48:18.517Z,41.53
2022-11-18T22:50:21.697Z,41.70
2022-11-18T22:52:24.713Z,42.23
2022-11-18T22:54:44.222Z,41.73
2022-11-18T22:56:47.377Z,44.10
2022-11-18T22:58:50.482Z,38.83
2022-11-18T23:00:53.400Z,40.10
2022-11-18T23:02:56.402Z,41.30
2022-11-18T23:04:59.397Z,40.03
2022-11-18T23:07:02.463Z,39.27
2022-11-18T23:09:05.447Z,36.90
2022-11-18T23:11:11.001Z,35.33
2022-11-18T23:13:31.311Z,33.70
2022-11-18T23:15:34.486Z,32.97
2022-11-18T23:17:37.274Z,35.07
2022-11-18T23:19:43.529Z,31.33
2022-11-18T23:21:47.082Z,31.70
2022-11-18T23:23:49.937Z,32.67
2022-11-18T23:25:52.784Z,28.30
2022-11-18T23:27:57.053Z,32.00
2022-11-18T23:29:59.888Z,31.93
2022-11-18T23:32:02.720Z,28.90
2022-11-18T23:34:05.747Z,31.87
2022-11-18T23:36:10.527Z,35.73
2022-11-18T23:38:13.444Z,29.53
2022-11-18T23:40:17.114Z,31.87
2022-11-18T23:42:20.081Z,29.73
2022-11-18T23:44:44.309Z,30.57
2022-11-18T23:46:47.275Z,29.20
2022-11-18T23:48:50.223Z,26.00
2022-11-18T23:50:56.629Z,28.60
2022-11-18T23:52:59.444Z,28.57
2022-11-18T23:55:02.389Z,25.10
2022-11-18T23:57:05.568Z,24.50
2022-11-18T23:59:08.691Z,27.80
